In Rescue
 
Open Full Screen Window  High Contrast Mode
Wind Gusting 00 knots
04
November 19, 2019 1:01 PM CST
Weather Information
Wind Direction
  280 °
Wind Speed
  04 kt (5 mph)
Wind Gust
  00 kt (0 mph)
Altimeter
29.82 in
Visibility
7 SM
Temperature
03° C
37° F
Dewpoint
01° C
34° F
Humidity
87%
1hr Rain Fall
00.00 in.
24hr Rain Fall
00.00 in.
Sky Condition
Overcast @ 1,500 ft
MVFR

METAR KPWC 191901Z AUTO 28004KT 7SM OVC015 03/01 A2982 RMK AO2

FAA Disclaimer: The data displayed is for advisory purposes only and is not to be used for flight planning or operations.